createdAt,value
2018-11-07T00:01:30.094Z,13.57
2018-11-07T00:03:58.436Z,15.70
2018-11-07T00:06:26.734Z,14.70
2018-11-07T00:08:55.003Z,13.53
2018-11-07T00:11:23.282Z,14.43
2018-11-07T00:13:51.599Z,12.83
2018-11-07T00:16:19.861Z,13.47
2018-11-07T00:18:48.256Z,11.93
2018-11-07T00:21:16.568Z,13.47
2018-11-07T00:23:44.836Z,13.77
2018-11-07T00:26:13.222Z,15.03
2018-11-07T00:28:41.564Z,13.63
2018-11-07T00:31:09.870Z,13.37
2018-11-07T00:33:38.184Z,14.23
2018-11-07T00:36:06.515Z,15.40
2018-11-07T00:38:34.821Z,13.87
2018-11-07T00:41:03.136Z,14.00
2018-11-07T00:43:31.455Z,15.43
2018-11-07T00:45:59.795Z,14.77
2018-11-07T00:48:28.134Z,16.10
2018-11-07T00:50:56.482Z,16.70
2018-11-07T00:53:24.778Z,16.00
2018-11-07T00:55:53.135Z,16.23
2018-11-07T00:58:21.430Z,17.90
2018-11-07T01:00:49.781Z,17.17
2018-11-07T01:03:18.074Z,16.23
2018-11-07T01:05:46.385Z,17.40
2018-11-07T01:08:14.738Z,16.20
2018-11-07T01:10:43.034Z,17.20
2018-11-07T01:13:11.369Z,16.97
2018-11-07T01:15:39.728Z,17.10
2018-11-07T01:18:08.018Z,16.30
2018-11-07T01:20:36.336Z,16.27
2018-11-07T01:23:04.606Z,18.97
2018-11-07T01:25:32.993Z,16.97
2018-11-07T01:28:01.339Z,17.70
2018-11-07T01:30:29.718Z,16.13
2018-11-07T01:32:58.134Z,16.43
2018-11-07T01:35:26.542Z,17.90
2018-11-07T01:37:54.869Z,16.10
2018-11-07T01:40:23.263Z,16.00
2018-11-07T01:42:51.556Z,17.27
2018-11-07T01:45:19.911Z,18.03
2018-11-07T01:47:48.250Z,17.80
2018-11-07T01:50:16.510Z,16.00
2018-11-07T01:52:44.818Z,15.30
2018-11-07T01:55:13.172Z,16.17
2018-11-07T01:57:41.516Z,15.87
2018-11-07T02:00:11.553Z,13.90
2018-11-07T02:02:40.614Z,15.53
2018-11-07T02:05:08.926Z,16.17
2018-11-07T02:07:37.275Z,15.57
2018-11-07T02:10:06.645Z,16.97
2018-11-07T02:12:34.980Z,17.57
2018-11-07T02:15:03.316Z,18.53
2018-11-07T02:17:31.604Z,19.40
2018-11-07T02:19:59.921Z,19.20
2018-11-07T02:22:28.199Z,18.07
2018-11-07T02:24:56.518Z,16.40
2018-11-07T02:27:24.840Z,14.57
2018-11-07T02:29:53.176Z,15.90
2018-11-07T02:32:21.529Z,17.93
2018-11-07T02:34:49.843Z,17.17
2018-11-07T02:37:18.100Z,18.60
2018-11-07T02:39:46.426Z,15.07
2018-11-07T02:42:15.093Z,16.60
2018-11-07T02:44:43.444Z,14.10
2018-11-07T02:47:11.771Z,14.50
2018-11-07T02:49:40.096Z,19.67
2018-11-07T02:52:08.385Z,19.20
2018-11-07T02:54:36.725Z,18.23
2018-11-07T02:57:05.104Z,18.90
2018-11-07T02:59:33.428Z,18.87
2018-11-07T03:02:01.708Z,20.63
2018-11-07T03:04:30.046Z,17.97
2018-11-07T03:06:58.420Z,19.10
2018-11-07T03:09:26.770Z,17.70
2018-11-07T03:11:55.110Z,20.00
2018-11-07T03:14:23.473Z,19.93
2018-11-07T03:16:51.826Z,20.17
2018-11-07T03:19:20.172Z,18.40
2018-11-07T03:21:48.422Z,18.30
2018-11-07T03:24:16.755Z,23.47
2018-11-07T03:26:45.044Z,25.13
2018-11-07T03:29:13.420Z,24.30
2018-11-07T03:31:41.720Z,27.00
2018-11-07T03:34:10.105Z,36.40
2018-11-07T03:36:38.471Z,39.10
2018-11-07T03:39:08.835Z,33.07
2018-11-07T03:41:37.109Z,32.73
2018-11-07T03:44:05.946Z,21.00
2018-11-07T03:46:34.282Z,25.00
2018-11-07T03:49:02.674Z,24.60
2018-11-07T03:51:31.080Z,28.93
2018-11-07T03:53:59.494Z,31.30
2018-11-07T03:56:27.802Z,30.10
2018-11-07T03:58:56.266Z,32.13
2018-11-07T04:01:24.613Z,33.77
2018-11-07T04:03:52.940Z,31.10
2018-11-07T04:06:21.282Z,26.67
2018-11-07T04:08:49.572Z,20.20
2018-11-07T04:11:17.906Z,24.20
2018-11-07T04:13:46.196Z,28.00
2018-11-07T04:16:14.567Z,27.13
2018-11-07T04:18:42.907Z,28.30
2018-11-07T04:21:11.190Z,32.03
2018-11-07T04:23:39.553Z,30.00
2018-11-07T04:26:07.918Z,24.90
2018-11-07T04:28:36.260Z,23.30
2018-11-07T04:31:04.625Z,25.50
2018-11-07T04:33:32.951Z,24.17
2018-11-07T04:36:01.365Z,20.27
2018-11-07T04:38:29.693Z,20.90
2018-11-07T04:40:58.007Z,20.87
2018-11-07T04:43:26.316Z,22.10
2018-11-07T04:45:54.654Z,22.13
2018-11-07T04:48:22.992Z,21.27
2018-11-07T04:50:51.286Z,22.67
2018-11-07T04:53:19.601Z,22.70
2018-11-07T04:55:47.939Z,24.87
2018-11-07T04:58:16.302Z,27.20
2018-11-07T05:00:44.626Z,29.00
2018-11-07T05:03:12.918Z,32.30
2018-11-07T05:05:41.214Z,33.40
2018-11-07T05:08:09.578Z,30.90
2018-11-07T05:10:37.906Z,27.47
2018-11-07T05:13:06.245Z,28.23
2018-11-07T05:15:34.538Z,27.97
2018-11-07T05:18:02.868Z,26.60
2018-11-07T05:20:31.345Z,23.23
2018-11-07T05:22:59.688Z,32.80
2018-11-07T05:25:28.059Z,23.10
2018-11-07T05:27:56.442Z,21.80
2018-11-07T05:30:24.778Z,21.73
2018-11-07T05:32:53.089Z,21.83
2018-11-07T05:35:21.417Z,22.67
2018-11-07T05:37:49.721Z,20.57
2018-11-07T05:40:18.040Z,21.50
2018-11-07T05:42:47.276Z,21.30
2018-11-07T05:45:15.599Z,22.90
2018-11-07T05:47:43.869Z,22.97
2018-11-07T05:50:12.173Z,20.93
2018-11-07T05:52:40.427Z,20.90
2018-11-07T05:55:09.458Z,20.63
2018-11-07T05:57:37.734Z,25.37
2018-11-07T06:00:07.567Z,29.80
2018-11-07T06:02:35.881Z,25.97
2018-11-07T06:05:04.359Z,18.13
2018-11-07T06:07:32.735Z,15.60
2018-11-07T06:10:01.104Z,15.93
2018-11-07T06:12:29.420Z,15.53
2018-11-07T06:14:57.798Z,15.60
2018-11-07T06:17:26.139Z,73.27
2018-11-07T06:19:54.474Z,18.07
2018-11-07T06:22:22.760Z,17.07
2018-11-07T06:24:51.111Z,17.80
2018-11-07T06:27:19.442Z,16.40
2018-11-07T06:29:47.792Z,13.90
2018-11-07T06:32:16.478Z,14.87
2018-11-07T06:34:44.856Z,13.10
2018-11-07T06:37:13.175Z,13.00
2018-11-07T06:39:41.502Z,12.93
2018-11-07T06:42:09.870Z,15.17
2018-11-07T06:44:38.273Z,15.93
2018-11-07T06:47:06.920Z,16.73
2018-11-07T06:49:35.271Z,16.07
2018-11-07T06:52:03.642Z,16.50
2018-11-07T06:54:32.029Z,16.70
2018-11-07T06:57:00.438Z,19.50
2018-11-07T06:59:28.710Z,20.07
2018-11-07T07:01:57.042Z,15.73
2018-11-07T07:04:25.310Z,15.23
2018-11-07T07:06:53.652Z,15.10
2018-11-07T07:09:21.965Z,19.20
2018-11-07T07:11:51.160Z,15.90
2018-11-07T07:14:19.776Z,15.93
2018-11-07T07:16:48.362Z,17.10
2018-11-07T07:19:16.971Z,18.00
2018-11-07T07:21:45.584Z,17.90
2018-11-07T07:24:14.094Z,18.87
2018-11-07T07:26:42.674Z,20.63
2018-11-07T07:29:11.173Z,19.40
2018-11-07T07:31:39.760Z,17.20
2018-11-07T07:34:08.451Z,16.20
2018-11-07T07:36:36.961Z,16.63
2018-11-07T07:39:07.974Z,18.10
2018-11-07T07:41:37.066Z,18.70
2018-11-07T07:44:05.723Z,18.33
2018-11-07T07:46:34.360Z,24.03
2018-11-07T07:49:03.025Z,24.37
2018-11-07T07:51:31.631Z,17.47
2018-11-07T07:54:00.309Z,18.33
2018-11-07T07:56:28.715Z,18.00
2018-11-07T07:58:57.314Z,17.47
2018-11-07T08:01:25.830Z,18.20
2018-11-07T08:03:54.405Z,17.57
2018-11-07T08:06:23.447Z,17.07
2018-11-07T08:08:51.916Z,16.83
2018-11-07T08:11:20.546Z,17.83
2018-11-07T08:13:49.150Z,18.80
2018-11-07T08:16:17.671Z,27.53
2018-11-07T08:18:46.174Z,18.43
2018-11-07T08:21:14.830Z,18.10
2018-11-07T08:23:43.219Z,18.13
2018-11-07T08:26:11.815Z,21.90
2018-11-07T08:28:40.497Z,21.00
2018-11-07T08:31:09.025Z,19.40
2018-11-07T08:33:37.418Z,17.70
2018-11-07T08:36:06.163Z,19.40
2018-11-07T08:38:34.441Z,19.57
2018-11-07T08:41:02.834Z,19.70
2018-11-07T08:43:31.158Z,19.10
2018-11-07T08:45:59.451Z,19.90
2018-11-07T08:48:27.758Z,19.80
2018-11-07T08:50:56.062Z,19.50
2018-11-07T08:53:24.387Z,20.93
2018-11-07T08:55:52.754Z,22.10
2018-11-07T08:58:21.020Z,20.77
2018-11-07T09:00:49.371Z,20.83
2018-11-07T09:03:17.626Z,21.07
2018-11-07T09:05:45.919Z,20.80
2018-11-07T09:08:14.258Z,24.17
2018-11-07T09:10:42.535Z,24.23
2018-11-07T09:13:10.844Z,26.30
2018-11-07T09:15:39.189Z,25.00
2018-11-07T09:18:07.478Z,24.70
2018-11-07T09:20:35.850Z,24.93
2018-11-07T09:23:04.240Z,18.20
2018-11-07T09:25:32.547Z,17.67
2018-11-07T09:28:00.872Z,19.83
2018-11-07T09:30:29.256Z,17.40
2018-11-07T09:32:57.570Z,17.20
2018-11-07T09:35:25.962Z,15.77
2018-11-07T09:37:54.279Z,25.87
2018-11-07T09:40:22.661Z,17.53
2018-11-07T09:42:51.289Z,16.87
2018-11-07T09:45:20.883Z,14.83
2018-11-07T09:47:49.299Z,17.50
2018-11-07T09:50:18.371Z,19.30
2018-11-07T09:52:47.538Z,23.50
2018-11-07T09:55:17.982Z,17.23
2018-11-07T09:57:46.337Z,16.53
2018-11-07T10:00:17.224Z,20.27
2018-11-07T10:02:45.898Z,25.50
2018-11-07T10:05:14.980Z,23.70
2018-11-07T10:07:43.346Z,16.90
2018-11-07T10:10:13.881Z,31.47
2018-11-07T10:12:42.610Z,16.97
2018-11-07T10:15:11.822Z,18.07
2018-11-07T10:17:40.181Z,25.80
2018-11-07T10:20:12.383Z,24.77
2018-11-07T10:22:41.079Z,24.33
2018-11-07T10:25:10.289Z,18.13
2018-11-07T10:27:38.880Z,17.00
2018-11-07T10:30:09.319Z,16.23
2018-11-07T10:32:37.462Z,13.50
2018-11-07T10:35:06.881Z,13.17
2018-11-07T10:37:35.270Z,13.60
2018-11-07T10:40:03.656Z,15.70
2018-11-07T10:42:31.964Z,14.63
2018-11-07T10:45:00.318Z,14.87
2018-11-07T10:47:28.626Z,16.87
2018-11-07T10:49:56.999Z,15.43
2018-11-07T10:52:25.370Z,13.60
2018-11-07T10:54:53.632Z,14.00
2018-11-07T10:57:21.906Z,13.50
2018-11-07T10:59:50.282Z,18.20
2018-11-07T11:02:23.862Z,17.17
2018-11-07T11:04:52.297Z,20.03
2018-11-07T11:07:20.600Z,16.00
2018-11-07T11:09:48.917Z,13.87
2018-11-07T11:12:17.259Z,12.67
2018-11-07T11:14:45.609Z,13.87
2018-11-07T11:17:14.495Z,13.40
2018-11-07T11:19:42.944Z,13.43
2018-11-07T11:22:11.352Z,12.63
2018-11-07T11:24:39.654Z,11.83
2018-11-07T11:27:08.047Z,11.17
2018-11-07T11:29:36.374Z,9.80
2018-11-07T11:32:05.574Z,12.00
2018-11-07T11:34:34.057Z,10.37
2018-11-07T11:37:02.285Z,10.60
2018-11-07T11:39:31.111Z,9.10
2018-11-07T11:41:59.373Z,8.73
2018-11-07T11:44:27.670Z,10.00
2018-11-07T11:46:56.014Z,9.50
2018-11-07T11:49:24.343Z,9.10
2018-11-07T11:51:52.652Z,7.70
2018-11-07T11:54:20.962Z,7.03
2018-11-07T11:56:49.254Z,8.40
2018-11-07T11:59:17.698Z,5.93
2018-11-07T12:01:46.593Z,6.50
2018-11-07T12:04:14.938Z,5.83
2018-11-07T12:06:43.223Z,5.60
2018-11-07T12:09:11.670Z,5.00
2018-11-07T12:11:39.985Z,5.30
2018-11-07T12:14:08.282Z,3.90
2018-11-07T12:16:36.614Z,4.20
2018-11-07T12:19:05.096Z,4.00
2018-11-07T12:21:33.388Z,3.33
2018-11-07T12:24:01.752Z,3.73
2018-11-07T12:26:30.101Z,3.10
2018-11-07T12:28:58.453Z,3.80
2018-11-07T12:31:26.763Z,3.33
2018-11-07T12:33:55.087Z,3.90
2018-11-07T12:36:23.466Z,4.77
2018-11-07T12:38:51.762Z,4.03
2018-11-07T12:41:20.068Z,4.80
2018-11-07T12:43:48.386Z,3.83
2018-11-07T12:46:16.706Z,3.77
2018-11-07T12:48:44.987Z,3.60
2018-11-07T12:51:13.350Z,4.00
2018-11-07T12:53:41.888Z,4.93
2018-11-07T12:56:10.188Z,4.30
2018-11-07T12:58:38.544Z,4.00
2018-11-07T13:01:06.904Z,4.00
2018-11-07T13:03:35.170Z,4.40
2018-11-07T13:06:03.470Z,4.00
2018-11-07T13:08:31.776Z,4.10
2018-11-07T13:11:00.108Z,3.60
2018-11-07T13:13:28.440Z,3.50
2018-11-07T13:15:56.790Z,3.77
2018-11-07T13:18:25.138Z,3.90
2018-11-07T13:20:53.528Z,3.57
2018-11-07T13:23:21.840Z,4.10
2018-11-07T13:25:50.154Z,3.73
2018-11-07T13:28:18.552Z,4.30
2018-11-07T13:30:46.774Z,3.83
2018-11-07T13:33:15.042Z,4.13
2018-11-07T13:35:43.316Z,4.53
2018-11-07T13:38:11.784Z,3.80
2018-11-07T13:40:39.959Z,4.30
2018-11-07T13:43:08.253Z,5.37
2018-11-07T13:45:36.585Z,5.50
2018-11-07T13:48:04.824Z,4.87
2018-11-07T13:50:33.127Z,3.90
2018-11-07T13:53:01.479Z,4.70
2018-11-07T13:55:29.794Z,4.23
2018-11-07T13:57:58.189Z,5.13
2018-11-07T14:00:26.556Z,4.20
2018-11-07T14:02:54.951Z,5.47
2018-11-07T14:05:23.357Z,5.83
2018-11-07T14:07:51.628Z,6.03
2018-11-07T14:10:26.344Z,5.50
2018-11-07T14:12:55.859Z,5.13
2018-11-07T14:15:24.226Z,4.73
2018-11-07T14:17:52.718Z,4.80
2018-11-07T14:20:21.089Z,4.97
2018-11-07T14:22:49.394Z,4.80
2018-11-07T14:25:17.749Z,4.30
2018-11-07T14:27:46.360Z,5.00
2018-11-07T14:30:17.859Z,4.00
2018-11-07T14:32:51.796Z,3.83
2018-11-07T14:35:20.190Z,4.67
2018-11-07T14:37:48.507Z,4.40
2018-11-07T14:40:17.897Z,4.17
2018-11-07T14:42:46.201Z,4.17
2018-11-07T14:45:15.432Z,4.20
2018-11-07T14:47:43.801Z,10.83
2018-11-07T14:50:12.750Z,8.97
2018-11-07T14:52:49.182Z,9.50
2018-11-07T14:55:17.578Z,4.57
2018-11-07T14:57:46.942Z,5.00
2018-11-07T15:00:16.245Z,4.20
2018-11-07T15:02:45.210Z,7.43
2018-11-07T15:05:14.604Z,4.97
2018-11-07T15:07:43.580Z,4.83
2018-11-07T15:10:12.892Z,6.30
2018-11-07T15:12:41.167Z,6.70
2018-11-07T15:15:11.836Z,5.40
2018-11-07T15:17:40.165Z,4.07
2018-11-07T15:20:09.778Z,30.27
2018-11-07T15:22:38.122Z,4.17
2018-11-07T15:25:07.541Z,4.13
2018-11-07T15:27:35.846Z,6.20
2018-11-07T15:30:04.275Z,6.90
2018-11-07T15:32:32.666Z,5.50
2018-11-07T15:35:01.008Z,4.23
2018-11-07T15:37:29.375Z,5.50
2018-11-07T15:39:58.830Z,5.27
2018-11-07T15:42:27.249Z,4.77
2018-11-07T15:44:55.605Z,5.60
2018-11-07T15:47:23.924Z,5.13
2018-11-07T15:49:57.662Z,5.50
2018-11-07T15:52:25.966Z,5.27
2018-11-07T15:54:55.316Z,5.30
2018-11-07T15:57:23.618Z,5.20
2018-11-07T15:59:51.940Z,4.93
2018-11-07T16:02:20.322Z,5.07
2018-11-07T16:04:48.640Z,7.10
2018-11-07T16:07:16.978Z,5.33
2018-11-07T16:09:45.301Z,5.60
2018-11-07T16:12:14.720Z,4.90
2018-11-07T16:14:44.096Z,5.50
2018-11-07T16:17:12.368Z,5.40
2018-11-07T16:19:40.671Z,5.17
2018-11-07T16:22:09.037Z,4.80
2018-11-07T16:24:37.351Z,5.80
2018-11-07T16:27:05.695Z,5.50
2018-11-07T16:29:33.945Z,5.00
2018-11-07T16:32:02.236Z,5.33
2018-11-07T16:34:30.541Z,5.43
2018-11-07T16:36:58.888Z,5.20
2018-11-07T16:39:27.196Z,5.20
2018-11-07T16:41:56.674Z,6.27
2018-11-07T16:44:25.981Z,6.40
2018-11-07T16:46:54.397Z,6.20
2018-11-07T16:49:22.744Z,6.77
2018-11-07T16:51:51.061Z,6.43
2018-11-07T16:54:21.437Z,7.37
2018-11-07T16:56:49.986Z,6.80
2018-11-07T16:59:18.799Z,7.30
2018-11-07T17:01:47.168Z,6.70
2018-11-07T17:04:15.477Z,5.47
2018-11-07T17:06:43.802Z,5.90
2018-11-07T17:09:12.133Z,6.60
2018-11-07T17:11:41.130Z,6.90
2018-11-07T17:14:09.626Z,7.93
2018-11-07T17:16:37.938Z,7.33
2018-11-07T17:19:06.250Z,8.00
2018-11-07T17:21:34.608Z,11.53
2018-11-07T17:24:02.988Z,7.87
2018-11-07T17:26:31.422Z,6.90
2018-11-07T17:28:59.701Z,6.27
2018-11-07T17:31:28.112Z,6.20
2018-11-07T17:33:56.666Z,6.80
2018-11-07T17:36:24.986Z,6.70
2018-11-07T17:38:53.313Z,7.10
2018-11-07T17:41:21.612Z,6.07
2018-11-07T17:43:49.917Z,7.63
2018-11-07T17:46:18.249Z,6.20
2018-11-07T17:48:47.720Z,7.27
2018-11-07T17:51:16.113Z,7.10
2018-11-07T17:53:44.387Z,6.53
2018-11-07T17:56:12.740Z,5.47
2018-11-07T17:58:40.990Z,6.40
2018-11-07T18:01:09.255Z,6.63
2018-11-07T18:03:37.635Z,5.93
2018-11-07T18:06:07.000Z,6.40
2018-11-07T18:08:35.278Z,5.63
2018-11-07T18:11:04.345Z,7.20
2018-11-07T18:13:32.702Z,7.13
2018-11-07T18:16:00.962Z,6.40
2018-11-07T18:18:29.306Z,5.77
2018-11-07T18:20:57.590Z,6.07
2018-11-07T18:23:25.925Z,6.10
2018-11-07T18:25:56.243Z,7.50
2018-11-07T18:28:24.604Z,8.50
2018-11-07T18:30:53.248Z,8.30
2018-11-07T18:33:21.556Z,8.67
2018-11-07T18:35:49.893Z,8.83
2018-11-07T18:38:18.196Z,6.93
2018-11-07T18:40:46.522Z,7.43
2018-11-07T18:43:14.837Z,7.00
2018-11-07T18:45:43.166Z,5.90
2018-11-07T18:48:11.458Z,6.30
2018-11-07T18:50:39.890Z,6.40
2018-11-07T18:53:08.076Z,6.70
2018-11-07T18:55:36.325Z,8.10
2018-11-07T18:58:04.825Z,7.90
2018-11-07T19:00:33.106Z,7.43
2018-11-07T19:03:01.516Z,7.43
2018-11-07T19:05:29.841Z,8.03
2018-11-07T19:07:58.097Z,9.00
2018-11-07T19:10:26.377Z,8.57
2018-11-07T19:12:54.773Z,7.70
2018-11-07T19:15:23.149Z,9.70
2018-11-07T19:17:51.980Z,10.60
2018-11-07T19:20:20.568Z,10.90
2018-11-07T19:22:49.897Z,11.97
2018-11-07T19:25:19.549Z,11.57
2018-11-07T19:27:47.867Z,10.70
2018-11-07T19:30:19.350Z,9.50
2018-11-07T19:32:48.718Z,9.10
2018-11-07T19:35:17.924Z,8.10
2018-11-07T19:37:46.769Z,8.50
2018-11-07T19:40:16.595Z,9.60
2018-11-07T19:42:44.980Z,9.13
2018-11-07T19:45:15.716Z,10.73
2018-11-07T19:47:44.044Z,9.10
2018-11-07T19:50:13.664Z,8.70
2018-11-07T19:52:42.224Z,11.07
2018-11-07T19:55:13.362Z,10.07
2018-11-07T19:57:42.018Z,9.43
2018-11-07T20:00:12.783Z,17.43
2018-11-07T20:02:41.565Z,13.10
2018-11-07T20:05:09.846Z,8.37
2018-11-07T20:07:39.054Z,7.90
2018-11-07T20:10:13.180Z,8.87
2018-11-07T20:12:41.521Z,11.40
2018-11-07T20:15:11.186Z,9.33
2018-11-07T20:17:39.571Z,10.00
2018-11-07T20:20:09.010Z,8.43
2018-11-07T20:22:37.391Z,10.80
2018-11-07T20:25:06.740Z,10.80
2018-11-07T20:27:35.049Z,10.03
2018-11-07T20:30:03.352Z,9.97
2018-11-07T20:32:31.685Z,10.67
2018-11-07T20:34:59.987Z,14.50
2018-11-07T20:37:28.323Z,11.30
2018-11-07T20:39:56.590Z,9.90
2018-11-07T20:42:24.991Z,10.07
2018-11-07T20:44:53.353Z,10.10
2018-11-07T20:47:21.753Z,10.50
2018-11-07T20:49:50.114Z,9.93
2018-11-07T20:52:18.646Z,9.23
2018-11-07T20:54:47.215Z,9.90
2018-11-07T20:57:19.111Z,12.17
2018-11-07T20:59:47.424Z,18.83
2018-11-07T21:02:15.724Z,13.10
2018-11-07T21:04:44.084Z,13.87
2018-11-07T21:07:15.949Z,16.90
2018-11-07T21:09:44.274Z,17.30
2018-11-07T21:12:12.599Z,14.77
2018-11-07T21:14:40.890Z,18.07
2018-11-07T21:17:13.630Z,17.57
2018-11-07T21:19:41.980Z,15.27
2018-11-07T21:22:11.470Z,23.30
2018-11-07T21:24:39.950Z,17.87
2018-11-07T21:27:08.303Z,15.70
2018-11-07T21:29:36.626Z,14.93
2018-11-07T21:32:05.514Z,14.27
2018-11-07T21:34:33.935Z,15.03
2018-11-07T21:37:02.215Z,18.53
2018-11-07T21:39:30.525Z,17.07
2018-11-07T21:41:58.827Z,14.20
2018-11-07T21:44:27.242Z,13.40
2018-11-07T21:46:55.567Z,14.23
2018-11-07T21:49:23.919Z,13.40
2018-11-07T21:51:52.252Z,14.63
2018-11-07T21:54:20.558Z,14.03
2018-11-07T21:56:48.864Z,14.33
2018-11-07T21:59:17.119Z,13.23
2018-11-07T22:01:45.448Z,15.00
2018-11-07T22:04:13.692Z,13.03
2018-11-07T22:06:42.042Z,12.67
2018-11-07T22:09:11.203Z,11.80
2018-11-07T22:11:39.514Z,11.70
2018-11-07T22:14:08.347Z,10.97
2018-11-07T22:16:37.453Z,12.87
2018-11-07T22:19:05.931Z,11.30
2018-11-07T22:21:36.384Z,13.20
2018-11-07T22:24:04.829Z,10.83
2018-11-07T22:26:33.083Z,13.10
2018-11-07T22:29:01.379Z,13.50
2018-11-07T22:31:29.746Z,14.80
2018-11-07T22:33:57.998Z,14.10
2018-11-07T22:36:27.382Z,14.20
2018-11-07T22:38:55.720Z,14.07
2018-11-07T22:41:24.066Z,13.77
2018-11-07T22:43:52.411Z,11.13
2018-11-07T22:46:20.695Z,12.60
2018-11-07T22:48:48.984Z,13.00
2018-11-07T22:51:18.386Z,12.83
2018-11-07T22:53:46.702Z,14.07
2018-11-07T22:56:15.021Z,12.33
2018-11-07T22:58:43.288Z,12.10
2018-11-07T23:01:16.762Z,12.60
2018-11-07T23:03:46.317Z,12.13
2018-11-07T23:06:14.571Z,14.40
2018-11-07T23:08:42.887Z,13.00
2018-11-07T23:11:11.265Z,13.30
2018-11-07T23:13:39.568Z,14.20
2018-11-07T23:16:07.855Z,13.30
2018-11-07T23:18:36.299Z,12.93
2018-11-07T23:21:04.823Z,12.30
2018-11-07T23:23:33.133Z,14.43
2018-11-07T23:26:01.501Z,14.47
2018-11-07T23:28:29.812Z,12.40
2018-11-07T23:30:58.187Z,13.23
2018-11-07T23:33:26.495Z,13.30
2018-11-07T23:35:54.763Z,14.93
2018-11-07T23:38:23.015Z,14.50
2018-11-07T23:40:51.356Z,14.93
2018-11-07T23:43:19.733Z,14.77
2018-11-07T23:45:48.023Z,15.90
2018-11-07T23:48:16.325Z,16.37
2018-11-07T23:50:44.696Z,15.63
2018-11-07T23:53:14.408Z,16.77
2018-11-07T23:55:43.830Z,15.70
2018-11-07T23:58:12.256Z,16.83
